Iskander — 3V4713 — position and weather

sailwx.info

Track history (hours):
 
Tides and Currents Weather Stations Pressure Air Temp Water Temp Dewpoint Dewpoint Depression Visibility Wind Speed Wind Dir Waves Ship Positions

Iskander

Last reported at 2018-Feb-18 05:10 UTC. Time now 2018-Feb-24 20:13 UTC.
Position N 36°17' E 013°46'.

Length 81 m; draft 6 m.

Type: Cargo ship. MMSI: 672296000.

Date/timePositionNaut miles runAvg speedWind from/ knotsBaromVisibWave heightAir tempDewpointWater temp
2018-Feb-18 05:10N 36°17' E 013°46'1 8.3
2018-Feb-18 05:00N 36°16' E 013°48'4 8.1
2018-Feb-18 04:30N 36°14' E 013°53'4 8.4
2018-Feb-18 04:00N 36°13' E 013°57'4 8.1
2018-Feb-18 03:29N 36°11' E 014°02'4 8.3
2018-Feb-18 03:00N 36°09' E 014°06'4 8.5
2018-Feb-18 02:30N 36°08' E 014°11'4 8.3
2018-Feb-18 01:59N 36°06' E 014°16'4 8.2
2018-Feb-18 01:30N 36°04' E 014°21'4 8.8
2018-Feb-18 01:00N 36°02' E 014°26'4 8.7
2018-Feb-18 00:30N 36°00' E 014°30'14 0.4
2018-Feb-16 14:55N 35°48' E 014°39'1 1.9
2018-Feb-16 14:21N 35°49' E 014°39'1 1.5
2018-Feb-16 13:56N 35°50' E 014°40'0 0.7
2018-Feb-16 13:16N 35°49' E 014°40'1 0.1
2018-Feb-16 03:52N 35°48' E 014°39'0 0.0
2018-Feb-15 18:28N 35°48' E 014°39'1 0.2
2018-Feb-15 15:19N 35°49' E 014°39'1 0.5
2018-Feb-15 12:56N 35°48' E 014°39'2 4.6
2018-Feb-15 12:30N 35°50' E 014°39'1 0.7
2018-Feb-15 10:40N 35°49' E 014°39'1 5.6
2018-Feb-15 10:27N 35°50' E 014°38'3 5.2
2018-Feb-15 09:57N 35°52' E 014°37'2 5.4
2018-Feb-15 09:30N 35°55' E 014°37'2 4.4
2018-Feb-15 09:00N 35°57' E 014°38'  
2018-Feb-11 08:13N 39°60' E 025°00'2 8.3
2018-Feb-11 07:59N 40°01' E 025°01'13 8.5
2018-Feb-11 06:29N 40°10' E 025°13'5 8.6
2018-Feb-11 05:57N 40°13' E 025°18'4 8.7
2018-Feb-11 05:30N 40°15' E 025°23'  
Track history (hours):
 
Tides and Currents Weather Stations Pressure Air Temp Water Temp Dewpoint Dewpoint Depression Visibility Wind Speed Wind Dir Waves Ship Positions

Iskander

Last reported at 2018-Feb-18 05:10 UTC. Time now 2018-Feb-24 20:13 UTC.
Position N 36°17' E 013°46'.

Length 81 m; draft 6 m.

Type: Cargo ship. MMSI: 672296000.

Date/timePositionNaut miles runAvg speedWind from/ knotsBaromVisibWave heightAir tempDewpointWater temp
2018-Feb-18 05:10N 36°17' E 013°46'1 8.3
2018-Feb-18 05:00N 36°16' E 013°48'4 8.1
2018-Feb-18 04:30N 36°14' E 013°53'4 8.4
2018-Feb-18 04:00N 36°13' E 013°57'4 8.1
2018-Feb-18 03:29N 36°11' E 014°02'4 8.3
2018-Feb-18 03:00N 36°09' E 014°06'4 8.5
2018-Feb-18 02:30N 36°08' E 014°11'4 8.3
2018-Feb-18 01:59N 36°06' E 014°16'4 8.2
2018-Feb-18 01:30N 36°04' E 014°21'4 8.8
2018-Feb-18 01:00N 36°02' E 014°26'4 8.7
2018-Feb-18 00:30N 36°00' E 014°30'14 0.4
2018-Feb-16 14:55N 35°48' E 014°39'1 1.9
2018-Feb-16 14:21N 35°49' E 014°39'1 1.5
2018-Feb-16 13:56N 35°50' E 014°40'0 0.7
2018-Feb-16 13:16N 35°49' E 014°40'1 0.1
2018-Feb-16 03:52N 35°48' E 014°39'0 0.0
2018-Feb-15 18:28N 35°48' E 014°39'1 0.2
2018-Feb-15 15:19N 35°49' E 014°39'1 0.5
2018-Feb-15 12:56N 35°48' E 014°39'2 4.6
2018-Feb-15 12:30N 35°50' E 014°39'1 0.7
2018-Feb-15 10:40N 35°49' E 014°39'1 5.6
2018-Feb-15 10:27N 35°50' E 014°38'3 5.2
2018-Feb-15 09:57N 35°52' E 014°37'2 5.4
2018-Feb-15 09:30N 35°55' E 014°37'2 4.4
2018-Feb-15 09:00N 35°57' E 014°38'  
2018-Feb-11 08:13N 39°60' E 025°00'2 8.3
2018-Feb-11 07:59N 40°01' E 025°01'13 8.5
2018-Feb-11 06:29N 40°10' E 025°13'5 8.6
2018-Feb-11 05:57N 40°13' E 025°18'4 8.7
2018-Feb-11 05:30N 40°15' E 025°23'  

Dump ship's entire track history